sensor_id;sensor_type;location;lat;lon;timestamp;pressure;altitude;pressure_sealevel;temperature;humidity
49055;BME280;35405;52.344;14.530;2023-02-13T06:59:39;102871.00;;;5.03;100.00
49055;BME280;35405;52.344;14.530;2023-02-13T07:02:04;102872.88;;;5.03;100.00
49055;BME280;35405;52.344;14.530;2023-02-13T07:04:29;102874.97;;;5.08;100.00
49055;BME280;35405;52.344;14.530;2023-02-13T07:06:55;102867.69;;;5.08;100.00
49055;BME280;35405;52.344;14.530;2023-02-13T07:12:23;102876.66;;;5.09;100.00
49055;BME280;35405;52.344;14.530;2023-02-13T07:14:56;102876.84;;;5.07;100.00
49055;BME280;35405;52.344;14.530;2023-02-13T07:17:22;102875.38;;;5.11;100.00
49055;BME280;35405;52.344;14.530;2023-02-13T07:20:06;102878.53;;;5.15;100.00
49055;BME280;35405;52.344;14.530;2023-02-13T07:22:33;102879.16;;;5.17;100.00
49055;BME280;35405;52.344;14.530;2023-02-13T07:24:58;102879.78;;;5.19;100.00
49055;BME280;35405;52.344;14.530;2023-02-13T07:27:24;102884.78;;;5.22;100.00
49055;BME280;35405;52.344;14.530;2023-02-13T07:29:49;102889.53;;;5.20;100.00
49055;BME280;35405;52.344;14.530;2023-02-13T07:32:14;102885.44;;;5.24;100.00
49055;BME280;35405;52.344;14.530;2023-02-13T07:34:40;102884.81;;;5.28;100.00
49055;BME280;35405;52.344;14.530;2023-02-13T07:37:05;102890.00;;;5.30;100.00
49055;BME280;35405;52.344;14.530;2023-02-13T07:39:30;102887.09;;;5.32;100.00
49055;BME280;35405;52.344;14.530;2023-02-13T07:41:55;102888.56;;;5.34;100.00
49055;BME280;35405;52.344;14.530;2023-02-13T07:44:21;102896.66;;;5.34;100.00
49055;BME280;35405;52.344;14.530;2023-02-13T07:46:46;102904.56;;;5.36;100.00
49055;BME280;35405;52.344;14.530;2023-02-13T07:49:11;102913.28;;;5.38;100.00
49055;BME280;35405;52.344;14.530;2023-02-13T07:51:36;102910.16;;;5.41;100.00
49055;BME280;35405;52.344;14.530;2023-02-13T07:54:02;102919.94;;;5.42;100.00
49055;BME280;35405;52.344;14.530;2023-02-13T07:56:27;102921.38;;;5.44;100.00
49055;BME280;35405;52.344;14.530;2023-02-13T07:58:52;102926.78;;;5.44;100.00
49055;BME280;35405;52.344;14.530;2023-02-13T08:01:18;102918.69;;;5.44;100.00
49055;BME280;35405;52.344;14.530;2023-02-13T08:03:46;102926.78;;;5.44;100.00
49055;BME280;35405;52.344;14.530;2023-02-13T08:06:11;102918.75;;;5.51;100.00
49055;BME280;35405;52.344;14.530;2023-02-13T08:08:40;102915.63;;;5.54;100.00
49055;BME280;35405;52.344;14.530;2023-02-13T08:11:06;102915.63;;;5.54;100.00
49055;BME280;35405;52.344;14.530;2023-02-13T08:13:50;102920.63;;;5.57;100.00
49055;BME280;35405;52.344;14.530;2023-02-13T08:16:16;102927.28;;;5.61;100.00
49055;BME280;35405;52.344;14.530;2023-02-13T08:18:41;102930.81;;;5.62;100.00
49055;BME280;35405;52.344;14.530;2023-02-13T08:21:06;102932.47;;;5.63;100.00
49055;BME280;35405;52.344;14.530;2023-02-13T08:23:31;102925.81;;;5.65;100.00
49055;BME280;35405;52.344;14.530;2023-02-13T08:26:00;102929.81;;;5.69;100.00
49055;BME280;35405;52.344;14.530;2023-02-13T08:28:26;102925.88;;;5.72;100.00
49055;BME280;35405;52.344;14.530;2023-02-13T08:30:51;102923.38;;;5.77;100.00
49055;BME280;35405;52.344;14.530;2023-02-13T08:33:16;102921.31;;;5.79;100.00
49055;BME280;35405;52.344;14.530;2023-02-13T08:35:41;102923.19;;;5.79;100.00
49055;BME280;35405;52.344;14.530;2023-02-13T08:38:08;102926.69;;;5.79;100.00
49055;BME280;35405;52.344;14.530;2023-02-13T08:40:33;102927.94;;;5.83;100.00
49055;BME280;35405;52.344;14.530;2023-02-13T08:43:02;102925.47;;;5.88;100.00
49055;BME280;35405;52.344;14.530;2023-02-13T08:45:28;102928.81;;;5.90;100.00
49055;BME280;35405;52.344;14.530;2023-02-13T08:47:59;102921.16;;;5.94;100.00
49055;BME280;35405;52.344;14.530;2023-02-13T08:50:24;102935.50;;;5.94;100.00
49055;BME280;35405;52.344;14.530;2023-02-13T08:52:50;102935.06;;;5.98;100.00
49055;BME280;35405;52.344;14.530;2023-02-13T08:55:15;102935.06;;;5.98;100.00
49055;BME280;35405;52.344;14.530;2023-02-13T08:57:41;102925.72;;;6.00;100.00
49055;BME280;35405;52.344;14.530;2023-02-13T09:00:06;102936.13;;;6.03;100.00
49055;BME280;35405;52.344;14.530;2023-02-13T09:02:31;102941.72;;;6.02;100.00
49055;BME280;35405;52.344;14.530;2023-02-13T09:04:57;102949.22;;;6.00;100.00
49055;BME280;35405;52.344;14.530;2023-02-13T09:07:22;102950.88;;;6.01;100.00
49055;BME280;35405;52.344;14.530;2023-02-13T09:09:47;102946.75;;;6.05;100.00
49055;BME280;35405;52.344;14.530;2023-02-13T09:12:12;102948.41;;;6.06;100.00
49055;BME280;35405;52.344;14.530;2023-02-13T09:14:38;102951.91;;;6.00;100.00
49055;BME280;35405;52.344;14.530;2023-02-13T09:17:03;102951.09;;;6.06;100.00
49055;BME280;35405;52.344;14.530;2023-02-13T09:19:28;102938.84;;;6.10;100.00
49055;BME280;35405;52.344;14.530;2023-02-13T09:21:54;102943.00;;;6.12;100.00
49055;BME280;35405;52.344;14.530;2023-02-13T09:24:19;102948.81;;;6.16;100.00
49055;BME280;35405;52.344;14.530;2023-02-13T09:26:44;102949.22;;;6.13;100.00
49055;BME280;35405;52.344;14.530;2023-02-13T09:29:09;102940.53;;;6.17;100.00
49055;BME280;35405;52.344;14.530;2023-02-13T09:31:35;102942.59;;;6.22;100.00
49055;BME280;35405;52.344;14.530;2023-02-13T09:34:00;102936.16;;;6.30;100.00
49055;BME280;35405;52.344;14.530;2023-02-13T09:36:25;102935.94;;;6.31;100.00
49055;BME280;35405;52.344;14.530;2023-02-13T09:38:51;102929.09;;;6.35;100.00
49055;BME280;35405;52.344;14.530;2023-02-13T09:41:22;102935.94;;;6.31;100.00
49055;BME280;35405;52.344;14.530;2023-02-13T09:43:49;102936.56;;;6.40;100.00
49055;BME280;35405;52.344;14.530;2023-02-13T09:46:18;102933.03;;;6.39;100.00
49055;BME280;35405;52.344;14.530;2023-02-13T09:48:46;102932.63;;;6.49;100.00
49055;BME280;35405;52.344;14.530;2023-02-13T09:51:16;102933.66;;;6.55;100.00
49055;BME280;35405;52.344;14.530;2023-02-13T09:53:44;102933.66;;;6.55;100.00
49055;BME280;35405;52.344;14.530;2023-02-13T09:56:15;102939.69;;;6.57;100.00
49055;BME280;35405;52.344;14.530;2023-02-13T09:58:42;102934.28;;;6.57;100.00
49055;BME280;35405;52.344;14.530;2023-02-13T10:01:15;102946.56;;;6.59;100.00
49055;BME280;35405;52.344;14.530;2023-02-13T10:03:43;102952.16;;;6.64;100.00
49055;BME280;35405;52.344;14.530;2023-02-13T10:06:16;102954.03;;;6.64;100.00
49055;BME280;35405;52.344;14.530;2023-02-13T10:11:35;102948.00;;;6.75;100.00
49055;BME280;35405;52.344;14.530;2023-02-13T10:14:12;102941.94;;;6.73;100.00
49055;BME280;35405;52.344;14.530;2023-02-13T10:16:50;102943.81;;;6.79;100.00
49055;BME280;35405;52.344;14.530;2023-02-13T10:21:50;102936.53;;;6.86;100.00
49055;BME280;35405;52.344;14.530;2023-02-13T10:26:48;102925.91;;;6.98;100.00
49055;BME280;35405;52.344;14.530;2023-02-13T10:29:14;102932.31;;;7.04;100.00
49055;BME280;35405;52.344;14.530;2023-02-13T10:32:01;102927.97;;;7.03;100.00
49055;BME280;35405;52.344;14.530;2023-02-13T10:34:30;102925.25;;;7.03;100.00
49055;BME280;35405;52.344;14.530;2023-02-13T10:36:59;102917.50;;;7.20;100.00
49055;BME280;35405;52.344;14.530;2023-02-13T10:39:25;102926.00;;;7.30;100.00
49055;BME280;35405;52.344;14.530;2023-02-13T10:44:31;102922.47;;;7.29;100.00
49055;BME280;35405;52.344;14.530;2023-02-13T10:47:13;102918.69;;;7.30;100.00
49055;BME280;35405;52.344;14.530;2023-02-13T10:49:47;102915.41;;;7.28;100.00
49055;BME280;35405;52.344;14.530;2023-02-13T10:52:21;102913.09;;;7.32;100.00
49055;BME280;35405;52.344;14.530;2023-02-13T10:54:53;102910.56;;;7.30;100.00
49055;BME280;35405;52.344;14.530;2023-02-13T10:57:49;102906.19;;;7.36;100.00
49055;BME280;35405;52.344;14.530;2023-02-13T11:02:42;102902.41;;;7.44;100.00
49055;BME280;35405;52.344;14.530;2023-02-13T11:05:23;102898.03;;;7.49;100.00
49055;BME280;35405;52.344;14.530;2023-02-13T11:07:49;102899.00;;;7.55;100.00
49055;BME280;35405;52.344;14.530;2023-02-13T11:10:19;102893.97;;;7.65;100.00
49055;BME280;35405;52.344;14.530;2023-02-13T11:12:45;102906.50;;;7.60;100.00
49055;BME280;35405;52.344;14.530;2023-02-13T11:17:48;102898.06;;;7.74;100.00
49055;BME280;35405;52.344;14.530;2023-02-13T11:20:24;102886.19;;;7.75;100.00
49055;BME280;35405;52.344;14.530;2023-02-13T11:22:49;102890.91;;;7.87;100.00
49055;BME280;35405;52.344;14.530;2023-02-13T11:25:22;102889.72;;;7.76;100.00
49055;BME280;35405;52.344;14.530;2023-02-13T11:27:49;102890.38;;;7.71;100.00
49055;BME280;35405;52.344;14.530;2023-02-13T11:30:33;102894.34;;;7.69;100.00
49055;BME280;35405;52.344;14.530;2023-02-13T11:32:59;102881.03;;;7.67;100.00
49055;BME280;35405;52.344;14.530;2023-02-13T11:35:34;102884.72;;;7.73;100.00
49055;BME280;35405;52.344;14.530;2023-02-13T11:40:34;102881.72;;;7.88;100.00
49055;BME280;35405;52.344;14.530;2023-02-13T11:43:00;102880.06;;;7.87;100.00
49055;BME280;35405;52.344;14.530;2023-02-13T11:45:25;102880.50;;;7.84;100.00
49055;BME280;35405;52.344;14.530;2023-02-13T11:47:51;102882.84;;;7.80;100.00
49055;BME280;35405;52.344;14.530;2023-02-13T11:50:19;102884.00;;;7.91;100.00
49055;BME280;35405;52.344;14.530;2023-02-13T11:55:39;102887.72;;;7.96;100.00
49055;BME280;35405;52.344;14.530;2023-02-13T12:00:39;102887.25;;;7.74;100.00
49055;BME280;35405;52.344;14.530;2023-02-13T12:05:54;102881.59;;;7.76;100.00
49055;BME280;35405;52.344;14.530;2023-02-13T12:08:23;102883.34;;;7.64;100.00
49055;BME280;35405;52.344;14.530;2023-02-13T12:10:49;102884.78;;;7.66;100.00
49055;BME280;35405;52.344;14.530;2023-02-13T12:13:19;102877.91;;;7.64;100.00
49055;BME280;35405;52.344;14.530;2023-02-13T12:15:45;102881.91;;;7.61;100.00
49055;BME280;35405;52.344;14.530;2023-02-13T12:26:33;102877.84;;;7.39;100.00
49055;BME280;35405;52.344;14.530;2023-02-13T12:29:13;102864.16;;;7.27;100.00
49055;BME280;35405;52.344;14.530;2023-02-13T12:31:52;102859.41;;;7.22;100.00
49055;BME280;35405;52.344;14.530;2023-02-13T12:36:57;102871.09;;;7.09;100.00
49055;BME280;35405;52.344;14.530;2023-02-13T12:44:24;102870.72;;;7.51;100.00
49055;BME280;35405;52.344;14.530;2023-02-13T13:07:29;102865.53;;;7.04;100.00
49055;BME280;35405;52.344;14.530;2023-02-13T13:15:08;102871.50;;;7.20;100.00
49055;BME280;35405;52.344;14.530;2023-02-13T13:17:51;102871.09;;;7.16;100.00
49055;BME280;35405;52.344;14.530;2023-02-13T13:22:51;102868.84;;;7.06;100.00
49055;BME280;35405;52.344;14.530;2023-02-13T13:27:43;102868.53;;;6.83;100.00
49055;BME280;35405;52.344;14.530;2023-02-13T13:30:20;102871.63;;;6.80;100.00
49055;BME280;35405;52.344;14.530;2023-02-13T13:32:47;102858.94;;;6.74;100.00
49055;BME280;35405;52.344;14.530;2023-02-13T13:35:15;102861.66;;;6.74;100.00
49055;BME280;35405;52.344;14.530;2023-02-13T13:38:01;102841.91;;;6.73;100.00
49055;BME280;35405;52.344;14.530;2023-02-13T13:40:37;102852.13;;;6.71;100.00
49055;BME280;35405;52.344;14.530;2023-02-13T13:43:14;102851.06;;;6.72;100.00
49055;BME280;35405;52.344;14.530;2023-02-13T13:45:44;102857.91;;;6.75;100.00
49055;BME280;35405;52.344;14.530;2023-02-13T13:48:25;102857.28;;;6.79;100.00
49055;BME280;35405;52.344;14.530;2023-02-13T13:50:55;102850.59;;;6.88;100.00
49055;BME280;35405;52.344;14.530;2023-02-13T13:53:20;102860.78;;;6.93;100.00
49055;BME280;35405;52.344;14.530;2023-02-13T13:58:20;102858.09;;;6.86;100.00
49055;BME280;35405;52.344;14.530;2023-02-13T14:00:46;102840.63;;;6.82;100.00
49055;BME280;35405;52.344;14.530;2023-02-13T14:03:34;102847.47;;;6.85;100.00
49055;BME280;35405;52.344;14.530;2023-02-13T14:06:07;102837.75;;;6.77;100.00
49055;BME280;35405;52.344;14.530;2023-02-13T14:11:04;102841.91;;;6.73;100.00
49055;BME280;35405;52.344;14.530;2023-02-13T14:13:37;102831.31;;;6.72;100.00
49055;BME280;35405;52.344;14.530;2023-02-13T14:16:04;102836.50;;;6.73;100.00
49055;BME280;35405;52.344;14.530;2023-02-13T14:18:29;102821.50;;;6.71;100.00
49055;BME280;35405;52.344;14.530;2023-02-13T14:20:57;102820.25;;;6.73;100.00
49055;BME280;35405;52.344;14.530;2023-02-13T14:28:35;102811.97;;;6.61;100.00
49055;BME280;35405;52.344;14.530;2023-02-13T14:31:14;102809.09;;;6.56;100.00
49055;BME280;35405;52.344;14.530;2023-02-13T14:33:46;102809.28;;;6.55;100.00
49055;BME280;35405;52.344;14.530;2023-02-13T14:36:22;102804.94;;;6.54;100.00
49055;BME280;35405;52.344;14.530;2023-02-13T14:39:03;102795.56;;;6.50;100.00
49055;BME280;35405;52.344;14.530;2023-02-13T14:41:40;102795.81;;;6.48;100.00
49055;BME280;35405;52.344;14.530;2023-02-13T14:44:07;102791.22;;;6.49;100.00
49055;BME280;35405;52.344;14.530;2023-02-13T14:46:38;102785.00;;;6.48;100.00
49055;BME280;35405;52.344;14.530;2023-02-13T14:49:24;102792.28;;;6.48;100.00
49055;BME280;35405;52.344;14.530;2023-02-13T14:51:55;102791.22;;;6.49;100.00
49055;BME280;35405;52.344;14.530;2023-02-13T14:54:35;102796.22;;;6.45;100.00
49055;BME280;35405;52.344;14.530;2023-02-13T14:57:22;102793.31;;;6.40;100.00
49055;BME280;35405;52.344;14.530;2023-02-13T14:59:58;102803.31;;;6.39;100.00
49055;BME280;35405;52.344;14.530;2023-02-13T15:02:26;102801.44;;;6.40;100.00
49055;BME280;35405;52.344;14.530;2023-02-13T15:04:59;102803.31;;;6.39;100.00
49055;BME280;35405;52.344;14.530;2023-02-13T15:07:26;102787.94;;;6.33;100.00
49055;BME280;35405;52.344;14.530;2023-02-13T15:12:31;102792.72;;;6.31;100.00
49055;BME280;35405;52.344;14.530;2023-02-13T15:14:57;102793.13;;;6.28;100.00
49055;BME280;35405;52.344;14.530;2023-02-13T15:17:25;102786.50;;;6.24;100.00
49055;BME280;35405;52.344;14.530;2023-02-13T15:19:53;102784.00;;;6.23;100.00
49055;BME280;35405;52.344;14.530;2023-02-13T15:22:20;102785.47;;;6.18;100.00
49055;BME280;35405;52.344;14.530;2023-02-13T15:24:46;102795.88;;;6.15;100.00
49055;BME280;35405;52.344;14.530;2023-02-13T15:27:36;102803.34;;;6.13;100.00
49055;BME280;35405;52.344;14.530;2023-02-13T15:32:28;102804.81;;;6.09;100.00
49055;BME280;35405;52.344;14.530;2023-02-13T15:34:53;102802.31;;;6.07;100.00
49055;BME280;35405;52.344;14.530;2023-02-13T15:37:20;102802.53;;;6.06;100.00
49055;BME280;35405;52.344;14.530;2023-02-13T15:39:45;102800.25;;;6.03;100.00
49055;BME280;35405;52.344;14.530;2023-02-13T15:42:10;102812.72;;;5.97;100.00
49055;BME280;35405;52.344;14.530;2023-02-13T15:44:36;102807.31;;;5.97;100.00
49055;BME280;35405;52.344;14.530;2023-02-13T15:47:07;102808.78;;;5.93;100.00
49055;BME280;35405;52.344;14.530;2023-02-13T15:49:41;102800.84;;;5.91;100.00
49055;BME280;35405;52.344;14.530;2023-02-13T15:52:07;102798.13;;;5.91;100.00
49055;BME280;35405;52.344;14.530;2023-02-13T15:54:33;102805.59;;;5.89;100.00
49055;BME280;35405;52.344;14.530;2023-02-13T15:57:01;102805.00;;;5.87;100.00
49055;BME280;35405;52.344;14.530;2023-02-13T15:59:34;102804.16;;;5.87;100.00
49055;BME280;35405;52.344;14.530;2023-02-13T16:02:00;102796.69;;;5.82;100.00
49055;BME280;35405;52.344;14.530;2023-02-13T16:04:27;102809.53;;;5.80;100.00
49055;BME280;35405;52.344;14.530;2023-02-13T16:06:54;102811.66;;;5.78;100.00
49055;BME280;35405;52.344;14.530;2023-02-13T16:09:24;102797.69;;;5.74;100.00
49055;BME280;35405;52.344;14.530;2023-02-13T16:11:51;102794.59;;;5.71;100.00
49055;BME280;35405;52.344;14.530;2023-02-13T16:14:21;102793.34;;;5.67;100.00
49055;BME280;35405;52.344;14.530;2023-02-13T16:19:21;102788.56;;;5.62;100.00
49055;BME280;35405;52.344;14.530;2023-02-13T16:21:47;102796.66;;;5.62;100.00
49055;BME280;35405;52.344;14.530;2023-02-13T16:24:13;102790.00;;;5.65;100.00
49055;BME280;35405;52.344;14.530;2023-02-13T16:26:39;102784.84;;;5.63;100.00
49055;BME280;35405;52.344;14.530;2023-02-13T16:29:08;102779.03;;;5.60;100.00
49055;BME280;35405;52.344;14.530;2023-02-13T16:31:34;102777.75;;;5.56;100.00
49055;BME280;35405;52.344;14.530;2023-02-13T16:33:59;102777.97;;;5.54;100.00
49055;BME280;35405;52.344;14.530;2023-02-13T16:36:37;102781.09;;;5.51;100.00
49055;BME280;35405;52.344;14.530;2023-02-13T16:39:18;102779.81;;;5.47;100.00
49055;BME280;35405;52.344;14.530;2023-02-13T16:41:43;102788.97;;;5.46;100.00
49055;BME280;35405;52.344;14.530;2023-02-13T16:44:24;102794.13;;;5.47;100.00
49055;BME280;35405;52.344;14.530;2023-02-13T16:46:53;102803.28;;;5.46;100.00
49055;BME280;35405;52.344;14.530;2023-02-13T16:49:20;102815.97;;;5.46;100.00
49055;BME280;35405;52.344;14.530;2023-02-13T16:51:50;102818.84;;;5.44;100.00
49055;BME280;35405;52.344;14.530;2023-02-13T16:57:01;102813.44;;;5.44;100.00
49055;BME280;35405;52.344;14.530;2023-02-13T17:02:15;102813.66;;;5.36;100.00
49055;BME280;35405;52.344;14.530;2023-02-13T17:04:41;102813.44;;;5.38;100.00
49055;BME280;35405;52.344;14.530;2023-02-13T17:07:10;102813.03;;;5.34;100.00
49055;BME280;35405;52.344;14.530;2023-02-13T17:09:36;102824.84;;;5.33;100.00
49055;BME280;35405;52.344;14.530;2023-02-13T17:12:01;102831.25;;;5.32;100.00
49055;BME280;35405;52.344;14.530;2023-02-13T17:14:26;102822.56;;;5.30;100.00
49055;BME280;35405;52.344;14.530;2023-02-13T17:16:52;102819.88;;;5.30;100.00
49055;BME280;35405;52.344;14.530;2023-02-13T17:19:17;102824.84;;;5.33;100.00
49055;BME280;35405;52.344;14.530;2023-02-13T17:21:42;102825.88;;;5.32;100.00
49055;BME280;35405;52.344;14.530;2023-02-13T17:24:08;102825.69;;;5.34;100.00
49055;BME280;35405;52.344;14.530;2023-02-13T17:26:37;102824.03;;;5.33;100.00
49055;BME280;35405;52.344;14.530;2023-02-13T17:29:03;102827.75;;;5.32;100.00
49055;BME280;35405;52.344;14.530;2023-02-13T17:31:28;102831.25;;;5.32;100.00
49055;BME280;35405;52.344;14.530;2023-02-13T17:33:53;102830.84;;;5.35;100.00
49055;BME280;35405;52.344;14.530;2023-02-13T17:36:18;102833.97;;;5.32;100.00
49055;BME280;35405;52.344;14.530;2023-02-13T17:38:43;102841.22;;;5.32;100.00
49055;BME280;35405;52.344;14.530;2023-02-13T17:41:10;102842.47;;;5.29;100.00
49055;BME280;35405;52.344;14.530;2023-02-13T17:43:38;102842.47;;;5.29;100.00
49055;BME280;35405;52.344;14.530;2023-02-13T17:46:03;102841.03;;;5.26;100.00
49055;BME280;35405;52.344;14.530;2023-02-13T17:48:28;102831.06;;;5.27;100.00
49055;BME280;35405;52.344;14.530;2023-02-13T17:50:53;102840.41;;;5.24;100.00
49055;BME280;35405;52.344;14.530;2023-02-13T17:53:23;102845.97;;;5.23;100.00
49055;BME280;35405;52.344;14.530;2023-02-13T17:55:48;102835.59;;;5.20;100.00
49055;BME280;35405;52.344;14.530;2023-02-13T17:58:13;102839.75;;;5.22;100.00
49055;BME280;35405;52.344;14.530;2023-02-13T18:00:39;102832.88;;;5.20;100.00
49055;BME280;35405;52.344;14.530;2023-02-13T18:03:04;102834.75;;;5.19;100.00
49055;BME280;35405;52.344;14.530;2023-02-13T18:05:29;102832.88;;;5.20;100.00
49055;BME280;35405;52.344;14.530;2023-02-13T18:07:56;102832.28;;;5.18;100.00
49055;BME280;35405;52.344;14.530;2023-02-13T18:10:25;102830.00;;;5.15;100.00
49055;BME280;35405;52.344;14.530;2023-02-13T18:12:51;102835.78;;;5.12;100.00
49055;BME280;35405;52.344;14.530;2023-02-13T18:15:17;102835.16;;;5.10;100.00
49055;BME280;35405;52.344;14.530;2023-02-13T18:17:42;102840.53;;;5.10;100.00
49055;BME280;35405;52.344;14.530;2023-02-13T18:20:09;102841.59;;;5.09;100.00
49055;BME280;35405;52.344;14.530;2023-02-13T18:22:35;102833.91;;;5.06;100.00
49055;BME280;35405;52.344;14.530;2023-02-13T18:25:00;102837.22;;;5.08;100.00
49055;BME280;35405;52.344;14.530;2023-02-13T18:27:25;102838.91;;;5.09;100.00
49055;BME280;35405;52.344;14.530;2023-02-13T18:29:52;102842.59;;;5.08;100.00
49055;BME280;35405;52.344;14.530;2023-02-13T18:32:17;102832.22;;;5.04;100.00
49055;BME280;35405;52.344;14.530;2023-02-13T18:34:43;102839.72;;;5.09;100.00
49055;BME280;35405;52.344;14.530;2023-02-13T18:37:10;102831.81;;;5.08;100.00
49055;BME280;35405;52.344;14.530;2023-02-13T18:39:35;102832.03;;;5.06;100.00
49055;BME280;35405;52.344;14.530;2023-02-13T18:42:00;102831.22;;;5.06;100.00
49055;BME280;35405;52.344;14.530;2023-02-13T18:44:26;102824.94;;;5.05;100.00
49055;BME280;35405;52.344;14.530;2023-02-13T18:46:51;102829.94;;;5.01;100.00
49055;BME280;35405;52.344;14.530;2023-02-13T18:49:16;102823.53;;;5.02;100.00
49055;BME280;35405;52.344;14.530;2023-02-13T18:51:41;102817.09;;;5.03;100.00
49055;BME280;35405;52.344;14.530;2023-02-13T18:54:08;102823.94;;;5.06;100.00
49055;BME280;35405;52.344;14.530;2023-02-13T18:56:34;102816.44;;;5.01;100.00
49055;BME280;35405;52.344;14.530;2023-02-13T18:58:59;102813.97;;;5.00;100.00
49055;BME280;35405;52.344;14.530;2023-02-13T19:01:24;102818.06;;;4.96;100.00
49055;BME280;35405;52.344;14.530;2023-02-13T19:03:52;102811.03;;;4.95;100.00
49055;BME280;35405;52.344;14.530;2023-02-13T19:06:22;102815.78;;;4.93;100.00
49055;BME280;35405;52.344;14.530;2023-02-13T19:08:48;102811.44;;;4.92;100.00
49055;BME280;35405;52.344;14.530;2023-02-13T19:11:14;102812.06;;;4.94;100.00
49055;BME280;35405;52.344;14.530;2023-02-13T19:13:40;102817.06;;;4.97;100.00
49055;BME280;35405;52.344;14.530;2023-02-13T19:16:10;102809.81;;;4.97;100.00
49055;BME280;35405;52.344;14.530;2023-02-13T19:18:38;102819.53;;;4.98;100.00
49055;BME280;35405;52.344;14.530;2023-02-13T19:21:04;102822.63;;;4.95;100.00
49055;BME280;35405;52.344;14.530;2023-02-13T19:23:30;102816.84;;;4.98;100.00
49055;BME280;35405;52.344;14.530;2023-02-13T19:25:55;102822.44;;;4.97;100.00
49055;BME280;35405;52.344;14.530;2023-02-13T19:28:20;102822.84;;;4.94;100.00
49055;BME280;35405;52.344;14.530;2023-02-13T19:30:45;102823.03;;;4.92;100.00
49055;BME280;35405;52.344;14.530;2023-02-13T19:33:14;102828.44;;;4.92;100.00
49055;BME280;35405;52.344;14.530;2023-02-13T19:35:39;102822.81;;;4.87;100.00
49055;BME280;35405;52.344;14.530;2023-02-13T19:38:04;102835.88;;;4.90;100.00
49055;BME280;35405;52.344;14.530;2023-02-13T19:40:29;102846.06;;;4.88;100.00
49055;BME280;35405;52.344;14.530;2023-02-13T19:42:55;102851.59;;;4.80;100.00
49055;BME280;35405;52.344;14.530;2023-02-13T19:45:20;102847.66;;;4.76;100.00
49055;BME280;35405;52.344;14.530;2023-02-13T19:47:45;102850.34;;;4.76;100.00
49055;BME280;35405;52.344;14.530;2023-02-13T19:50:11;102852.84;;;4.77;100.00
49055;BME280;35405;52.344;14.530;2023-02-13T19:52:36;102860.50;;;4.74;100.00
49055;BME280;35405;52.344;14.530;2023-02-13T19:55:01;102864.41;;;4.71;100.00
49055;BME280;35405;52.344;14.530;2023-02-13T19:57:27;102864.63;;;4.70;100.00
49055;BME280;35405;52.344;14.530;2023-02-13T19:59:52;102864.63;;;4.70;100.00
49055;BME280;35405;52.344;14.530;2023-02-13T20:02:18;102864.81;;;4.68;100.00
49055;BME280;35405;52.344;14.530;2023-02-13T20:04:45;102871.38;;;4.59;100.00
49055;BME280;35405;52.344;14.530;2023-02-13T20:07:10;102869.91;;;4.56;100.00
49055;BME280;35405;52.344;14.530;2023-02-13T20:09:35;102874.28;;;4.57;100.00
49055;BME280;35405;52.344;14.530;2023-02-13T20:12:02;102869.69;;;4.51;100.00
49055;BME280;35405;52.344;14.530;2023-02-13T20:14:27;102880.00;;;4.48;100.00
49055;BME280;35405;52.344;14.530;2023-02-13T20:16:52;102881.69;;;4.49;100.00
49055;BME280;35405;52.344;14.530;2023-02-13T20:19:17;102880.88;;;4.48;100.00
49055;BME280;35405;52.344;14.530;2023-02-13T20:21:42;102883.75;;;4.47;100.00
49055;BME280;35405;52.344;14.530;2023-02-13T20:24:08;102888.94;;;4.48;100.00
49055;BME280;35405;52.344;14.530;2023-02-13T20:26:34;102903.00;;;4.44;100.00
49055;BME280;35405;52.344;14.530;2023-02-13T20:28:59;102896.13;;;4.41;100.00
49055;BME280;35405;52.344;14.530;2023-02-13T20:31:25;102896.78;;;4.43;100.00
49055;BME280;35405;52.344;14.530;2023-02-13T20:33:50;102903.66;;;4.46;100.00
49055;BME280;35405;52.344;14.530;2023-02-13T20:36:17;102900.75;;;4.47;100.00
49055;BME280;35405;52.344;14.530;2023-02-13T20:38:42;102902.59;;;4.47;100.00
49055;BME280;35405;52.344;14.530;2023-02-13T20:41:09;102901.13;;;4.44;100.00
49055;BME280;35405;52.344;14.530;2023-02-13T20:43:34;102906.53;;;4.44;100.00
49055;BME280;35405;52.344;14.530;2023-02-13T20:45:59;102911.47;;;4.41;100.00
49055;BME280;35405;52.344;14.530;2023-02-13T20:48:25;102914.34;;;4.39;100.00
49055;BME280;35405;52.344;14.530;2023-02-13T20:50:57;102912.91;;;4.37;100.00
49055;BME280;35405;52.344;14.530;2023-02-13T20:53:23;102908.53;;;4.35;100.00
49055;BME280;35405;52.344;14.530;2023-02-13T20:55:48;102917.44;;;4.36;100.00
49055;BME280;35405;52.344;14.530;2023-02-13T20:58:13;102914.94;;;4.34;100.00
49055;BME280;35405;52.344;14.530;2023-02-13T21:00:38;102916.81;;;4.34;100.00
49055;BME280;35405;52.344;14.530;2023-02-13T21:03:03;102920.13;;;4.36;100.00
49055;BME280;35405;52.344;14.530;2023-02-13T21:05:29;102922.19;;;4.34;100.00
49055;BME280;35405;52.344;14.530;2023-02-13T21:07:54;102926.75;;;4.33;100.00
49055;BME280;35405;52.344;14.530;2023-02-13T21:10:19;102937.72;;;4.32;100.00
49055;BME280;35405;52.344;14.530;2023-02-13T21:12:44;102934.19;;;4.31;100.00
49055;BME280;35405;52.344;14.530;2023-02-13T21:15:10;102933.38;;;4.31;100.00
49055;BME280;35405;52.344;14.530;2023-02-13T21:17:35;102932.06;;;4.27;100.00
49055;BME280;35405;52.344;14.530;2023-02-13T21:20:00;102935.78;;;4.26;100.00
